sensor_id;sensor_type;location;lat;lon;timestamp;pressure;altitude;pressure_sealevel;temperature;humidity
63111;BME280;49201;53.426;10.300;2023-05-08T00:02:14;102601.22;;;9.53;100.00
63111;BME280;49201;53.426;10.300;2023-05-08T00:04:39;102602.03;;;9.52;100.00
63111;BME280;49201;53.426;10.300;2023-05-08T00:07:05;102600.75;;;9.44;100.00
63111;BME280;49201;53.426;10.300;2023-05-08T00:09:30;102599.94;;;9.45;100.00
63111;BME280;49201;53.426;10.300;2023-05-08T00:11:56;102601.88;;;9.49;100.00
63111;BME280;49201;53.426;10.300;2023-05-08T00:14:21;102606.84;;;9.46;100.00
63111;BME280;49201;53.426;10.300;2023-05-08T00:16:47;102596.44;;;9.43;100.00
63111;BME280;49201;53.426;10.300;2023-05-08T00:19:12;102603.16;;;9.41;100.00
63111;BME280;49201;53.426;10.300;2023-05-08T00:21:37;102603.94;;;9.40;100.00
63111;BME280;49201;53.426;10.300;2023-05-08T00:24:03;102593.72;;;9.40;100.00
63111;BME280;49201;53.426;10.300;2023-05-08T00:26:29;102594.31;;;9.35;100.00
63111;BME280;49201;53.426;10.300;2023-05-08T00:28:54;102596.78;;;9.33;100.00
63111;BME280;49201;53.426;10.300;2023-05-08T00:31:20;102578.25;;;9.37;100.00
63111;BME280;49201;53.426;10.300;2023-05-08T00:33:45;102581.53;;;9.35;100.00
63111;BME280;49201;53.426;10.300;2023-05-08T00:36:11;102583.91;;;9.32;100.00
63111;BME280;49201;53.426;10.300;2023-05-08T00:38:36;102579.69;;;9.32;100.00
63111;BME280;49201;53.426;10.300;2023-05-08T00:41:02;102585.66;;;9.33;100.00
63111;BME280;49201;53.426;10.300;2023-05-08T00:43:28;102583.09;;;9.33;100.00
63111;BME280;49201;53.426;10.300;2023-05-08T00:45:59;102579.69;;;9.32;100.00
63111;BME280;49201;53.426;10.300;2023-05-08T00:48:32;102574.56;;;9.32;100.00
63111;BME280;49201;53.426;10.300;2023-05-08T00:50:59;102577.97;;;9.33;100.00
63111;BME280;49201;53.426;10.300;2023-05-08T00:53:28;102567.03;;;9.35;100.00
63111;BME280;49201;53.426;10.300;2023-05-08T00:55:55;102581.25;;;9.30;100.00
63111;BME280;49201;53.426;10.300;2023-05-08T00:58:21;102570.31;;;9.33;100.00
63111;BME280;49201;53.426;10.300;2023-05-08T01:00:48;102561.78;;;9.32;100.00
63111;BME280;49201;53.426;10.300;2023-05-08T01:03:15;102563.47;;;9.32;100.00
63111;BME280;49201;53.426;10.300;2023-05-08T01:05:40;102562.56;;;9.31;100.00
63111;BME280;49201;53.426;10.300;2023-05-08T01:08:07;102561.53;;;9.28;100.00
63111;BME280;49201;53.426;10.300;2023-05-08T01:11:05;102558.44;;;9.33;100.00
63111;BME280;49201;53.426;10.300;2023-05-08T01:16:52;102570.00;;;9.27;100.00
63111;BME280;49201;53.426;10.300;2023-05-08T01:19:41;102576.78;;;9.26;100.00
63111;BME280;49201;53.426;10.300;2023-05-08T01:25:45;102578.41;;;9.24;100.00
63111;BME280;49201;53.426;10.300;2023-05-08T01:33:48;102593.34;;;9.17;100.00
63111;BME280;49201;53.426;10.300;2023-05-08T01:36:45;102595.72;;;9.14;100.00
63111;BME280;49201;53.426;10.300;2023-05-08T01:42:23;102603.19;;;9.11;100.00
63111;BME280;49201;53.426;10.300;2023-05-08T01:45:02;102611.44;;;9.05;100.00
63111;BME280;49201;53.426;10.300;2023-05-08T01:47:29;102606.16;;;9.02;100.00
63111;BME280;49201;53.426;10.300;2023-05-08T01:52:57;102598.31;;;8.99;100.00
63111;BME280;49201;53.426;10.300;2023-05-08T01:55:30;102597.19;;;8.94;100.00
63111;BME280;49201;53.426;10.300;2023-05-08T01:57:59;102599.53;;;8.90;100.00
63111;BME280;49201;53.426;10.300;2023-05-08T02:00:26;102598.53;;;8.88;100.00
63111;BME280;49201;53.426;10.300;2023-05-08T02:02:57;102593.72;;;8.78;100.00
63111;BME280;49201;53.426;10.300;2023-05-08T02:05:24;102598.22;;;8.82;100.00
63111;BME280;49201;53.426;10.300;2023-05-08T02:07:50;102596.47;;;8.81;100.00
63111;BME280;49201;53.426;10.300;2023-05-08T02:10:17;102600.53;;;8.77;100.00
63111;BME280;49201;53.426;10.300;2023-05-08T02:12:45;102596.06;;;8.73;100.00
63111;BME280;49201;53.426;10.300;2023-05-08T02:15:13;102604.94;;;8.65;100.00
63111;BME280;49201;53.426;10.300;2023-05-08T02:17:40;102599.84;;;8.65;100.00
63111;BME280;49201;53.426;10.300;2023-05-08T02:20:08;102601.59;;;8.66;100.00
63111;BME280;49201;53.426;10.300;2023-05-08T02:22:41;102605.47;;;8.60;100.00
63111;BME280;49201;53.426;10.300;2023-05-08T02:25:08;102601.91;;;8.56;100.00
63111;BME280;49201;53.426;10.300;2023-05-08T02:27:37;102607.72;;;8.54;100.00
63111;BME280;49201;53.426;10.300;2023-05-08T02:30:04;102598.13;;;8.50;100.00
63111;BME280;49201;53.426;10.300;2023-05-08T02:32:30;102605.06;;;8.52;100.00
63111;BME280;49201;53.426;10.300;2023-05-08T02:34:57;102605.88;;;8.51;100.00
63111;BME280;49201;53.426;10.300;2023-05-08T02:37:23;102605.44;;;8.44;100.00
63111;BME280;49201;53.426;10.300;2023-05-08T02:39:51;102599.19;;;8.39;100.00
63111;BME280;49201;53.426;10.300;2023-05-08T02:42:18;102591.53;;;8.39;100.00
63111;BME280;49201;53.426;10.300;2023-05-08T02:44:44;102591.28;;;8.34;100.00
63111;BME280;49201;53.426;10.300;2023-05-08T02:47:26;102593.13;;;8.37;100.00
63111;BME280;49201;53.426;10.300;2023-05-08T02:50:13;102591.97;;;8.32;100.00
63111;BME280;49201;53.426;10.300;2023-05-08T02:52:49;102588.19;;;8.25;100.00
63111;BME280;49201;53.426;10.300;2023-05-08T02:55:33;102590.13;;;8.29;100.00
63111;BME280;49201;53.426;10.300;2023-05-08T03:00:41;102590.19;;;8.16;100.00
63111;BME280;49201;53.426;10.300;2023-05-08T03:03:27;102586.88;;;8.17;100.00
63111;BME280;49201;53.426;10.300;2023-05-08T03:05:58;102586.59;;;8.13;100.00
63111;BME280;49201;53.426;10.300;2023-05-08T03:08:30;102580.25;;;8.06;100.00
63111;BME280;49201;53.426;10.300;2023-05-08T03:10:59;102585.47;;;8.08;100.00
63111;BME280;49201;53.426;10.300;2023-05-08T03:13:31;102589.75;;;8.09;100.00
63111;BME280;49201;53.426;10.300;2023-05-08T03:16:00;102586.34;;;8.08;100.00
63111;BME280;49201;53.426;10.300;2023-05-08T03:18:31;102582.81;;;8.06;100.00
63111;BME280;49201;53.426;10.300;2023-05-08T03:20:59;102577.63;;;8.05;100.00
63111;BME280;49201;53.426;10.300;2023-05-08T03:23:27;102576.56;;;8.01;100.00
63111;BME280;49201;53.426;10.300;2023-05-08T03:25:54;102584.50;;;8.06;100.00
63111;BME280;49201;53.426;10.300;2023-05-08T03:28:22;102573.22;;;8.02;100.00
63111;BME280;49201;53.426;10.300;2023-05-08T03:30:49;102576.47;;;8.00;100.00
63111;BME280;49201;53.426;10.300;2023-05-08T03:33:16;102578.97;;;7.98;100.00
63111;BME280;49201;53.426;10.300;2023-05-08T03:35:43;102577.72;;;7.92;100.00
63111;BME280;49201;53.426;10.300;2023-05-08T03:38:09;102580.91;;;7.88;100.00
63111;BME280;49201;53.426;10.300;2023-05-08T03:40:35;102578.25;;;7.86;100.00
63111;BME280;49201;53.426;10.300;2023-05-08T03:43:05;102578.16;;;7.85;100.00
63111;BME280;49201;53.426;10.300;2023-05-08T03:45:34;102578.84;;;7.82;100.00
63111;BME280;49201;53.426;10.300;2023-05-08T03:48:03;102572.00;;;7.81;100.00
63111;BME280;49201;53.426;10.300;2023-05-08T03:50:30;102579.91;;;7.86;100.00
63111;BME280;49201;53.426;10.300;2023-05-08T03:52:57;102582.56;;;7.87;100.00
63111;BME280;49201;53.426;10.300;2023-05-08T03:55:23;102586.09;;;7.89;100.00
63111;BME280;49201;53.426;10.300;2023-05-08T04:01:02;102582.38;;;7.84;100.00
63111;BME280;49201;53.426;10.300;2023-05-08T04:09:19;102578.66;;;7.79;100.00
63111;BME280;49201;53.426;10.300;2023-05-08T04:14:51;102586.59;;;7.84;100.00
63111;BME280;49201;53.426;10.300;2023-05-08T04:17:40;102583.44;;;7.88;100.00
63111;BME280;49201;53.426;10.300;2023-05-08T04:20:10;102592.16;;;7.91;100.00
63111;BME280;49201;53.426;10.300;2023-05-08T04:22:39;102593.91;;;7.92;100.00
63111;BME280;49201;53.426;10.300;2023-05-08T04:25:07;102597.06;;;7.88;100.00
63111;BME280;49201;53.426;10.300;2023-05-08T04:27:34;102589.69;;;7.93;100.00
63111;BME280;49201;53.426;10.300;2023-05-08T04:30:00;102589.78;;;7.94;100.00
63111;BME280;49201;53.426;10.300;2023-05-08T04:32:28;102597.78;;;8.00;100.00
63111;BME280;49201;53.426;10.300;2023-05-08T04:34:54;102599.81;;;8.06;100.00
63111;BME280;49201;53.426;10.300;2023-05-08T04:37:25;102588.72;;;8.05;100.00
63111;BME280;49201;53.426;10.300;2023-05-08T04:39:51;102590.03;;;8.13;100.00
63111;BME280;49201;53.426;10.300;2023-05-08T04:42:17;102591.00;;;8.15;100.00
63111;BME280;49201;53.426;10.300;2023-05-08T04:44:43;102587.72;;;8.18;100.00
63111;BME280;49201;53.426;10.300;2023-05-08T04:47:09;102593.06;;;8.21;100.00
63111;BME280;49201;53.426;10.300;2023-05-08T04:49:34;102595.84;;;8.25;100.00
63111;BME280;49201;53.426;10.300;2023-05-08T04:52:00;102600.19;;;8.26;100.00
63111;BME280;49201;53.426;10.300;2023-05-08T04:54:26;102591.13;;;8.31;100.00
63111;BME280;49201;53.426;10.300;2023-05-08T04:56:51;102594.25;;;8.42;100.00
63111;BME280;49201;53.426;10.300;2023-05-08T04:59:17;102596.09;;;8.44;100.00
63111;BME280;49201;53.426;10.300;2023-05-08T05:01:47;102601.28;;;8.46;100.00
63111;BME280;49201;53.426;10.300;2023-05-08T05:04:12;102602.28;;;8.48;100.00
63111;BME280;49201;53.426;10.300;2023-05-08T05:06:39;102593.91;;;8.50;100.00
63111;BME280;49201;53.426;10.300;2023-05-08T05:09:05;102600.94;;;8.54;100.00
63111;BME280;49201;53.426;10.300;2023-05-08T05:11:31;102595.63;;;8.66;100.00
63111;BME280;49201;53.426;10.300;2023-05-08T05:13:56;102598.50;;;8.72;100.00
63111;BME280;49201;53.426;10.300;2023-05-08T05:16:22;102597.25;;;8.80;100.00
63111;BME280;49201;53.426;10.300;2023-05-08T05:18:47;102591.25;;;8.79;100.00
63111;BME280;49201;53.426;10.300;2023-05-08T05:21:13;102591.22;;;8.94;100.00
63111;BME280;49201;53.426;10.300;2023-05-08T05:23:39;102591.22;;;8.94;100.00
63111;BME280;49201;53.426;10.300;2023-05-08T05:26:04;102596.84;;;9.03;100.00
63111;BME280;49201;53.426;10.300;2023-05-08T05:28:30;102591.22;;;9.10;100.00
63111;BME280;49201;53.426;10.300;2023-05-08T05:30:56;102603.63;;;9.18;100.00
63111;BME280;49201;53.426;10.300;2023-05-08T05:33:21;102610.91;;;9.27;100.00
63111;BME280;49201;53.426;10.300;2023-05-08T05:35:47;102598.28;;;9.30;100.00
63111;BME280;49201;53.426;10.300;2023-05-08T05:38:12;102597.88;;;9.38;100.00
63111;BME280;49201;53.426;10.300;2023-05-08T05:40:38;102595.63;;;9.44;100.00
63111;BME280;49201;53.426;10.300;2023-05-08T05:43:03;102585.28;;;9.41;100.00
63111;BME280;49201;53.426;10.300;2023-05-08T05:45:29;102598.13;;;9.59;100.00
63111;BME280;49201;53.426;10.300;2023-05-08T05:47:55;102582.13;;;9.63;100.00
63111;BME280;49201;53.426;10.300;2023-05-08T05:50:24;102584.56;;;9.77;100.00
63111;BME280;49201;53.426;10.300;2023-05-08T05:52:52;102587.72;;;9.72;100.00
63111;BME280;49201;53.426;10.300;2023-05-08T05:55:19;102583.38;;;9.87;100.00
63111;BME280;49201;53.426;10.300;2023-05-08T05:57:46;102575.63;;;10.03;100.00
63111;BME280;49201;53.426;10.300;2023-05-08T06:00:11;102566.84;;;10.14;100.00
63111;BME280;49201;53.426;10.300;2023-05-08T06:02:40;102562.66;;;10.16;100.00
63111;BME280;49201;53.426;10.300;2023-05-08T06:05:12;102550.03;;;10.19;100.00
63111;BME280;49201;53.426;10.300;2023-05-08T06:07:37;102550.66;;;10.32;100.00
63111;BME280;49201;53.426;10.300;2023-05-08T06:10:04;102549.56;;;10.45;100.00
63111;BME280;49201;53.426;10.300;2023-05-08T06:12:30;102541.56;;;10.56;100.00
63111;BME280;49201;53.426;10.300;2023-05-08T06:14:56;102531.50;;;10.42;100.00
63111;BME280;49201;53.426;10.300;2023-05-08T06:17:21;102528.47;;;10.68;100.00
63111;BME280;49201;53.426;10.300;2023-05-08T06:19:47;102502.09;;;10.70;100.00
63111;BME280;49201;53.426;10.300;2023-05-08T06:22:15;102498.13;;;10.77;100.00
63111;BME280;49201;53.426;10.300;2023-05-08T06:24:42;102495.47;;;10.93;100.00
63111;BME280;49201;53.426;10.300;2023-05-08T06:27:08;102494.63;;;11.13;100.00
63111;BME280;49201;53.426;10.300;2023-05-08T06:29:34;102442.75;;;11.18;100.00
63111;BME280;49201;53.426;10.300;2023-05-08T06:31:59;102446.25;;;11.20;100.00
63111;BME280;49201;53.426;10.300;2023-05-08T06:34:25;102445.41;;;11.40;100.00
63111;BME280;49201;53.426;10.300;2023-05-08T06:36:50;102419.09;;;11.25;100.00
63111;BME280;49201;53.426;10.300;2023-05-08T06:39:15;102424.91;;;11.40;100.00
63111;BME280;49201;53.426;10.300;2023-05-08T06:41:41;102438.63;;;11.61;100.00
63111;BME280;49201;53.426;10.300;2023-05-08T06:44:06;102409.03;;;11.69;100.00
63111;BME280;49201;53.426;10.300;2023-05-08T06:46:32;102400.50;;;11.70;100.00
63111;BME280;49201;53.426;10.300;2023-05-08T06:48:57;102388.41;;;11.88;100.00
63111;BME280;49201;53.426;10.300;2023-05-08T06:51:23;102380.34;;;12.01;100.00
63111;BME280;49201;53.426;10.300;2023-05-08T06:53:48;102381.03;;;11.97;100.00
63111;BME280;49201;53.426;10.300;2023-05-08T06:56:14;102379.31;;;12.18;100.00
63111;BME280;49201;53.426;10.300;2023-05-08T06:58:39;102365.63;;;12.19;100.00
63111;BME280;49201;53.426;10.300;2023-05-08T07:01:05;102356.97;;;12.17;100.00
63111;BME280;49201;53.426;10.300;2023-05-08T07:03:30;102344.94;;;12.38;100.00
63111;BME280;49201;53.426;10.300;2023-05-08T07:05:56;102345.41;;;12.52;100.00
63111;BME280;49201;53.426;10.300;2023-05-08T07:08:21;102334.28;;;12.28;100.00
63111;BME280;49201;53.426;10.300;2023-05-08T07:10:47;102356.97;;;12.39;100.00
63111;BME280;49201;53.426;10.300;2023-05-08T07:13:12;102326.94;;;12.62;100.00
63111;BME280;49201;53.426;10.300;2023-05-08T07:15:38;102319.59;;;12.72;100.00
63111;BME280;49201;53.426;10.300;2023-05-08T07:18:03;102292.88;;;12.93;100.00
63111;BME280;49201;53.426;10.300;2023-05-08T07:20:29;102315.50;;;13.28;100.00
63111;BME280;49201;53.426;10.300;2023-05-08T07:22:55;102252.91;;;13.27;100.00
63111;BME280;49201;53.426;10.300;2023-05-08T07:25:21;102252.00;;;13.27;100.00
63111;BME280;49201;53.426;10.300;2023-05-08T07:27:46;102265.34;;;13.42;100.00
63111;BME280;49201;53.426;10.300;2023-05-08T07:30:12;102258.50;;;13.42;100.00
63111;BME280;49201;53.426;10.300;2023-05-08T07:32:37;102245.75;;;13.47;100.00
63111;BME280;49201;53.426;10.300;2023-05-08T07:35:04;102226.44;;;13.61;100.00
63111;BME280;49201;53.426;10.300;2023-05-08T07:37:31;102213.78;;;13.67;100.00
63111;BME280;49201;53.426;10.300;2023-05-08T07:39:57;102225.19;;;14.06;100.00
63111;BME280;49201;53.426;10.300;2023-05-08T07:42:22;102184.75;;;14.03;100.00
63111;BME280;49201;53.426;10.300;2023-05-08T07:44:48;102212.13;;;13.69;100.00
63111;BME280;49201;53.426;10.300;2023-05-08T07:47:13;102209.28;;;13.89;100.00
63111;BME280;49201;53.426;10.300;2023-05-08T07:49:39;102176.69;;;13.90;100.00
63111;BME280;49201;53.426;10.300;2023-05-08T07:52:04;102182.94;;;13.99;100.00
63111;BME280;49201;53.426;10.300;2023-05-08T07:54:30;102198.84;;;14.16;100.00
63111;BME280;49201;53.426;10.300;2023-05-08T07:56:55;102246.94;;;14.15;100.00
63111;BME280;49201;53.426;10.300;2023-05-08T07:59:21;102201.75;;;14.59;100.00
63111;BME280;49201;53.426;10.300;2023-05-08T08:01:46;102150.03;;;14.90;100.00
63111;BME280;49201;53.426;10.300;2023-05-08T08:04:12;102132.22;;;14.63;100.00
63111;BME280;49201;53.426;10.300;2023-05-08T08:06:39;102134.75;;;14.62;100.00
63111;BME280;49201;53.426;10.300;2023-05-08T08:09:04;102167.88;;;14.45;100.00
63111;BME280;49201;53.426;10.300;2023-05-08T08:11:30;102158.00;;;14.63;100.00
63111;BME280;49201;53.426;10.300;2023-05-08T08:13:55;102133.78;;;14.57;100.00
63111;BME280;49201;53.426;10.300;2023-05-08T08:16:21;102113.88;;;14.88;100.00
63111;BME280;49201;53.426;10.300;2023-05-08T08:18:46;102132.03;;;14.91;100.00
63111;BME280;49201;53.426;10.300;2023-05-08T08:21:12;102103.47;;;15.22;100.00
63111;BME280;49201;53.426;10.300;2023-05-08T08:23:37;102099.75;;;15.50;100.00
63111;BME280;49201;53.426;10.300;2023-05-08T08:26:03;102101.84;;;15.67;100.00
63111;BME280;49201;53.426;10.300;2023-05-08T08:28:28;102041.47;;;15.61;93.88
63111;BME280;49201;53.426;10.300;2023-05-08T08:30:54;102040.97;;;15.83;95.08
63111;BME280;49201;53.426;10.300;2023-05-08T08:33:19;102043.34;;;15.71;95.11
63111;BME280;49201;53.426;10.300;2023-05-08T08:35:45;102068.03;;;15.55;98.58
63111;BME280;49201;53.426;10.300;2023-05-08T08:38:10;102059.81;;;15.33;96.12
63111;BME280;49201;53.426;10.300;2023-05-08T08:40:40;102058.41;;;15.93;96.51
63111;BME280;49201;53.426;10.300;2023-05-08T08:43:06;102027.00;;;16.22;91.21
63111;BME280;49201;53.426;10.300;2023-05-08T08:45:32;102019.84;;;16.61;90.79
63111;BME280;49201;53.426;10.300;2023-05-08T08:48:00;101984.53;;;16.63;84.69
63111;BME280;49201;53.426;10.300;2023-05-08T08:50:30;101968.09;;;16.57;85.52
63111;BME280;49201;53.426;10.300;2023-05-08T08:53:06;101991.03;;;16.37;86.34
63111;BME280;49201;53.426;10.300;2023-05-08T08:55:38;101953.66;;;16.14;83.58
63111;BME280;49201;53.426;10.300;2023-05-08T08:58:14;101937.44;;;16.90;80.01
63111;BME280;49201;53.426;10.300;2023-05-08T09:00:42;101904.59;;;16.84;75.33
63111;BME280;49201;53.426;10.300;2023-05-08T09:03:08;101924.50;;;16.90;75.71
63111;BME280;49201;53.426;10.300;2023-05-08T09:05:34;101873.44;;;16.74;72.38
63111;BME280;49201;53.426;10.300;2023-05-08T09:08:00;101889.56;;;17.35;75.38
63111;BME280;49201;53.426;10.300;2023-05-08T09:10:26;101881.91;;;17.44;71.98
63111;BME280;49201;53.426;10.300;2023-05-08T09:12:52;101891.75;;;16.93;74.13
63111;BME280;49201;53.426;10.300;2023-05-08T09:15:18;101883.44;;;17.23;74.81
63111;BME280;49201;53.426;10.300;2023-05-08T09:17:43;101867.03;;;17.24;69.83
63111;BME280;49201;53.426;10.300;2023-05-08T09:20:09;101841.59;;;17.82;68.50
63111;BME280;49201;53.426;10.300;2023-05-08T09:22:35;101820.69;;;17.52;66.17
63111;BME280;49201;53.426;10.300;2023-05-08T09:25:02;101808.72;;;17.74;64.29
63111;BME280;49201;53.426;10.300;2023-05-08T09:27:28;101794.22;;;18.06;62.91
63111;BME280;49201;53.426;10.300;2023-05-08T09:30:07;101784.66;;;17.94;61.52
63111;BME280;49201;53.426;10.300;2023-05-08T09:32:35;101831.13;;;17.66;63.58
63111;BME280;49201;53.426;10.300;2023-05-08T09:35:01;101792.53;;;18.20;61.21
63111;BME280;49201;53.426;10.300;2023-05-08T09:37:27;101790.09;;;18.56;60.21
63111;BME280;49201;53.426;10.300;2023-05-08T09:39:53;101892.22;;;18.79;57.50
63111;BME280;49201;53.426;10.300;2023-05-08T09:42:19;101904.25;;;18.60;55.09
63111;BME280;49201;53.426;10.300;2023-05-08T09:44:50;101976.06;;;18.64;58.79
63111;BME280;49201;53.426;10.300;2023-05-08T09:47:18;101950.09;;;18.60;56.57
63111;BME280;49201;53.426;10.300;2023-05-08T09:50:08;101965.81;;;18.96;57.83
63111;BME280;49201;53.426;10.300;2023-05-08T09:52:36;101925.19;;;19.14;55.13
63111;BME280;49201;53.426;10.300;2023-05-08T09:57:29;101952.94;;;19.32;54.99
63111;BME280;49201;53.426;10.300;2023-05-08T10:02:32;101965.97;;;19.53;54.48
63111;BME280;49201;53.426;10.300;2023-05-08T10:04:58;101935.63;;;19.53;52.87
63111;BME280;49201;53.426;10.300;2023-05-08T10:07:31;101935.66;;;19.73;51.55
63111;BME280;49201;53.426;10.300;2023-05-08T10:10:01;101978.09;;;20.00;51.57
63111;BME280;49201;53.426;10.300;2023-05-08T10:12:27;101995.44;;;19.86;51.47
63111;BME280;49201;53.426;10.300;2023-05-08T10:14:53;101997.03;;;19.21;51.86
63111;BME280;49201;53.426;10.300;2023-05-08T10:17:43;102015.34;;;19.65;51.72
63111;BME280;49201;53.426;10.300;2023-05-08T10:20:13;102013.59;;;19.44;51.31
63111;BME280;49201;53.426;10.300;2023-05-08T10:22:42;102005.81;;;19.41;50.30
63111;BME280;49201;53.426;10.300;2023-05-08T10:25:11;101990.25;;;19.58;49.75
63111;BME280;49201;53.426;10.300;2023-05-08T10:27:46;102010.19;;;19.87;50.56
63111;BME280;49201;53.426;10.300;2023-05-08T10:30:18;102011.06;;;20.09;49.37
63111;BME280;49201;53.426;10.300;2023-05-08T10:32:50;102017.97;;;19.93;48.36
63111;BME280;49201;53.426;10.300;2023-05-08T10:35:19;102031.78;;;19.41;48.08
63111;BME280;49201;53.426;10.300;2023-05-08T10:37:46;102073.38;;;19.41;49.10
63111;BME280;49201;53.426;10.300;2023-05-08T10:40:12;102087.00;;;19.00;49.21
63111;BME280;49201;53.426;10.300;2023-05-08T10:42:40;102100.06;;;19.12;49.79
63111;BME280;49201;53.426;10.300;2023-05-08T10:45:07;102086.97;;;18.94;48.59
63111;BME280;49201;53.426;10.300;2023-05-08T10:55:44;102055.03;;;19.17;47.84
63111;BME280;49201;53.426;10.300;2023-05-08T10:58:14;102060.25;;;19.16;47.39
63111;BME280;49201;53.426;10.300;2023-05-08T11:03:28;102062.16;;;19.72;46.60
63111;BME280;49201;53.426;10.300;2023-05-08T11:05:55;102050.94;;;20.50;45.04
63111;BME280;49201;53.426;10.300;2023-05-08T11:08:23;102174.13;;;20.71;43.80
63111;BME280;49201;53.426;10.300;2023-05-08T11:13:35;102171.53;;;20.31;41.48
63111;BME280;49201;53.426;10.300;2023-05-08T11:16:01;102192.34;;;20.61;42.30
63111;BME280;49201;53.426;10.300;2023-05-08T11:18:28;102192.34;;;20.76;42.64
63111;BME280;49201;53.426;10.300;2023-05-08T11:23:27;102188.00;;;20.84;42.43
63111;BME280;49201;53.426;10.300;2023-05-08T11:28:26;102172.41;;;20.93;41.41
63111;BME280;49201;53.426;10.300;2023-05-08T11:30:53;102177.53;;;21.26;40.97
63111;BME280;49201;53.426;10.300;2023-05-08T11:33:20;102188.81;;;21.37;40.79
63111;BME280;49201;53.426;10.300;2023-05-08T11:35:59;102198.44;;;21.14;40.84
63111;BME280;49201;53.426;10.300;2023-05-08T11:41:19;102187.09;;;21.22;39.23
63111;BME280;49201;53.426;10.300;2023-05-08T11:46:34;102215.75;;;21.19;39.50
63111;BME280;49201;53.426;10.300;2023-05-08T11:49:02;102208.84;;;20.88;39.83
63111;BME280;49201;53.426;10.300;2023-05-08T11:51:32;102237.47;;;20.60;41.06
63111;BME280;49201;53.426;10.300;2023-05-08T11:54:01;102244.38;;;20.32;40.99
63111;BME280;49201;53.426;10.300;2023-05-08T11:56:27;102238.31;;;20.45;40.41
63111;BME280;49201;53.426;10.300;2023-05-08T11:59:03;102243.53;;;20.32;41.14
63111;BME280;49201;53.426;10.300;2023-05-08T12:01:30;102226.97;;;20.12;40.79
63111;BME280;49201;53.426;10.300;2023-05-08T12:04:04;102262.56;;;20.13;42.35
63111;BME280;49201;53.426;10.300;2023-05-08T12:06:30;102229.53;;;20.07;41.22
63111;BME280;49201;53.426;10.300;2023-05-08T12:08:57;102237.50;;;20.78;41.52
63111;BME280;49201;53.426;10.300;2023-05-08T12:11:24;102227.06;;;20.84;40.92
63111;BME280;49201;53.426;10.300;2023-05-08T12:13:50;102214.03;;;20.48;40.50
63111;BME280;49201;53.426;10.300;2023-05-08T12:16:16;102229.69;;;20.93;41.61
63111;BME280;49201;53.426;10.300;2023-05-08T12:18:42;102196.66;;;21.22;39.92
63111;BME280;49201;53.426;10.300;2023-05-08T12:21:09;102195.81;;;21.11;39.59
63111;BME280;49201;53.426;10.300;2023-05-08T12:23:36;102195.69;;;21.50;40.57
63111;BME280;49201;53.426;10.300;2023-05-08T12:26:03;102191.38;;;21.40;40.45
63111;BME280;49201;53.426;10.300;2023-05-08T12:28:29;102179.19;;;21.51;39.75
63111;BME280;49201;53.426;10.300;2023-05-08T12:30:57;102185.25;;;21.50;39.83
63111;BME280;49201;53.426;10.300;2023-05-08T12:33:23;102195.66;;;21.69;40.24
63111;BME280;49201;53.426;10.300;2023-05-08T12:35:49;102188.63;;;21.85;39.39
63111;BME280;49201;53.426;10.300;2023-05-08T12:38:15;102193.94;;;21.58;40.75
63111;BME280;49201;53.426;10.300;2023-05-08T12:40:42;102165.03;;;22.01;38.82
63111;BME280;49201;53.426;10.300;2023-05-08T12:43:08;102201.59;;;21.98;41.22
63111;BME280;49201;53.426;10.300;2023-05-08T12:45:36;102185.13;;;21.89;39.25
63111;BME280;49201;53.426;10.300;2023-05-08T12:48:08;102192.19;;;21.69;39.19
63111;BME280;49201;53.426;10.300;2023-05-08T12:50:38;102192.16;;;21.61;39.60
63111;BME280;49201;53.426;10.300;2023-05-08T12:53:06;102193.97;;;21.52;39.79
63111;BME280;49201;53.426;10.300;2023-05-08T12:55:33;102194.88;;;21.39;39.68
63111;BME280;49201;53.426;10.300;2023-05-08T12:58:06;102203.63;;;21.06;40.11
63111;BME280;49201;53.426;10.300;2023-05-08T13:03:07;102244.44;;;21.18;41.17
63111;BME280;49201;53.426;10.300;2023-05-08T13:05:34;102230.53;;;21.14;40.93
63111;BME280;49201;53.426;10.300;2023-05-08T13:08:05;102247.94;;;20.90;41.69
63111;BME280;49201;53.426;10.300;2023-05-08T13:10:51;102252.25;;;21.24;41.99
63111;BME280;49201;53.426;10.300;2023-05-08T13:13:24;102250.53;;;21.02;41.93
63111;BME280;49201;53.426;10.300;2023-05-08T13:15:51;102225.34;;;20.86;40.99
63111;BME280;49201;53.426;10.300;2023-05-08T13:18:17;102243.53;;;20.41;41.35
63111;BME280;49201;53.426;10.300;2023-05-08T13:20:43;102242.50;;;19.91;42.27
63111;BME280;49201;53.426;10.300;2023-05-08T13:23:11;102253.91;;;20.21;42.65
63111;BME280;49201;53.426;10.300;2023-05-08T13:25:38;102239.19;;;20.46;42.15
63111;BME280;49201;53.426;10.300;2023-05-08T13:28:05;102231.41;;;20.80;41.98
63111;BME280;49201;53.426;10.300;2023-05-08T13:30:30;102220.13;;;21.04;41.53
63111;BME280;49201;53.426;10.300;2023-05-08T13:32:56;102202.75;;;21.15;41.61
63111;BME280;49201;53.426;10.300;2023-05-08T13:35:22;102186.19;;;21.31;40.01
63111;BME280;49201;53.426;10.300;2023-05-08T13:37:48;102167.19;;;20.97;40.11
63111;BME280;49201;53.426;10.300;2023-05-08T13:40:14;102171.44;;;21.28;40.74
63111;BME280;49201;53.426;10.300;2023-05-08T13:42:40;102180.13;;;21.29;41.11
63111;BME280;49201;53.426;10.300;2023-05-08T13:45:07;102200.91;;;21.54;42.29
63111;BME280;49201;53.426;10.300;2023-05-08T13:47:35;102173.13;;;21.43;40.74